Time;durP1;ratioP1;P1;durP2;ratioP2;P2;SDS_P1;SDS_P2;PMS_P1;PMS_P2;Temp;Humidity;BMP_temperature;BMP_pressure;BME280_temperature;BME280_humidity;BME280_pressure;Samples;Min_cycle;Max_cycle;Signal;HPM_P1;HPM_P2
2023/06/24 00:01:43;;;;;;;15.73;6.68;;;;;;;;;;5090741;28;20051;-69
2023/06/24 00:04:09;;;;;;;10.40;6.40;;;;;;;;;;5092964;28;20103;-70
2023/06/24 00:06:34;;;;;;;25.33;6.95;;;;;;;;;;5092989;28;20028;-69
2023/06/24 00:09:02;;;;;;;9.65;7.00;;;;;;;;;;5091756;28;20024;-68
2023/06/24 00:11:29;;;;;;;11.88;6.88;;;;;;;;;;5090939;28;20027;-69
2023/06/24 00:13:55;;;;;;;12.00;7.05;;;;;;;;;;5091796;28;20101;-68
2023/06/24 00:16:26;;;;;;;13.20;7.13;;;;;;;;;;5091854;28;20461;-69
2023/06/24 00:18:52;;;;;;;11.00;6.88;;;;;;;;;;5092327;28;20107;-69
2023/06/24 00:21:19;;;;;;;11.82;6.68;;;;;;;;;;5093796;28;20032;-70
2023/06/24 00:23:44;;;;;;;10.05;6.25;;;;;;;;;;5094817;28;20040;-70
2023/06/24 00:26:10;;;;;;;9.02;6.32;;;;;;;;;;5094957;28;20082;-69
2023/06/24 00:28:36;;;;;;;11.75;6.30;;;;;;;;;;5094823;28;20032;-70
2023/06/24 00:31:02;;;;;;;9.85;6.57;;;;;;;;;;5092041;28;20027;-69
2023/06/24 00:33:28;;;;;;;10.23;6.40;;;;;;;;;;5095588;28;20026;-73
2023/06/24 00:35:56;;;;;;;11.32;6.60;;;;;;;;;;5095846;28;20388;-73
2023/06/24 00:38:21;;;;;;;9.38;6.88;;;;;;;;;;5095814;28;20024;-73
2023/06/24 00:40:47;;;;;;;11.60;6.97;;;;;;;;;;5114948;28;20114;-73
2023/06/24 00:43:12;;;;;;;9.98;7.15;;;;;;;;;;5093963;28;20458;-71
2023/06/24 00:45:38;;;;;;;9.02;6.32;;;;;;;;;;5095808;28;20162;-72
2023/06/24 00:48:04;;;;;;;11.70;6.82;;;;;;;;;;5095755;28;20040;-72
2023/06/24 00:50:29;;;;;;;10.30;6.97;;;;;;;;;;5095517;28;20081;-68
2023/06/24 00:52:55;;;;;;;10.35;7.00;;;;;;;;;;5095819;28;20578;-69
2023/06/24 00:55:21;;;;;;;12.05;7.20;;;;;;;;;;5095796;28;20020;-68
2023/06/24 00:57:52;;;;;;;12.77;7.07;;;;;;;;;;5095732;28;20039;-71
2023/06/24 01:00:19;;;;;;;12.15;7.40;;;;;;;;;;5095897;28;20085;-67
2023/06/24 01:02:47;;;;;;;15.40;7.40;;;;;;;;;;5095837;28;20551;-73
2023/06/24 01:05:14;;;;;;;11.30;6.18;;;;;;;;;;5095480;28;20035;-72
2023/06/24 01:07:40;;;;;;;13.38;6.88;;;;;;;;;;5095599;28;20024;-67
2023/06/24 01:10:07;;;;;;;11.20;7.47;;;;;;;;;;5095769;28;20035;-73
2023/06/24 01:12:43;;;;;;;12.13;7.38;;;;;;;;;;5095600;28;20040;-69
2023/06/24 01:15:10;;;;;;;11.27;6.95;;;;;;;;;;5095451;28;20331;-67
2023/06/24 01:17:54;;;;;;;12.30;6.97;;;;;;;;;;5095546;28;20024;-70
2023/06/24 01:20:46;;;;;;;12.13;6.20;;;;;;;;;;5095433;28;20079;-69
2023/06/24 01:23:42;;;;;;;10.65;6.88;;;;;;;;;;5095406;28;20540;-67
2023/06/24 01:26:30;;;;;;;9.85;6.57;;;;;;;;;;5095227;28;20061;-67
2023/06/24 01:29:30;;;;;;;9.50;6.35;;;;;;;;;;5095230;28;20032;-68
2023/06/24 01:32:15;;;;;;;13.02;6.57;;;;;;;;;;5094970;28;20032;-67
2023/06/24 01:34:55;;;;;;;11.02;6.22;;;;;;;;;;5094995;28;20073;-67
2023/06/24 01:37:28;;;;;;;12.07;6.82;;;;;;;;;;5094960;28;20103;-67
2023/06/24 01:40:10;;;;;;;9.30;6.15;;;;;;;;;;5106468;28;20039;-67
2023/06/24 01:42:42;;;;;;;17.17;7.72;;;;;;;;;;5115350;28;20085;-67
2023/06/24 01:45:12;;;;;;;12.20;6.50;;;;;;;;;;5095002;28;20028;-68
2023/06/24 01:47:40;;;;;;;13.32;7.07;;;;;;;;;;5094495;28;20055;-69
2023/06/24 01:50:10;;;;;;;12.75;7.22;;;;;;;;;;5094947;28;20028;-68
2023/06/24 01:52:36;;;;;;;12.03;7.47;;;;;;;;;;5094665;28;20433;-67
2023/06/24 01:55:06;;;;;;;12.80;7.13;;;;;;;;;;5094700;28;20024;-68
2023/06/24 01:57:34;;;;;;;14.68;6.82;;;;;;;;;;5094560;28;20031;-68
2023/06/24 02:00:00;;;;;;;13.60;7.40;;;;;;;;;;5094444;28;20028;-70
2023/06/24 02:02:27;;;;;;;17.88;6.50;;;;;;;;;;5094310;28;20088;-69
2023/06/24 02:04:54;;;;;;;13.32;8.13;;;;;;;;;;5094270;28;20039;-68
2023/06/24 02:07:20;;;;;;;12.00;7.40;;;;;;;;;;5094316;28;20081;-68
2023/06/24 02:09:46;;;;;;;15.65;7.45;;;;;;;;;;5094293;28;20028;-69
2023/06/24 02:12:12;;;;;;;14.35;7.45;;;;;;;;;;5094319;28;20036;-70
2023/06/24 02:14:39;;;;;;;13.30;6.90;;;;;;;;;;5094447;28;20073;-68
2023/06/24 02:17:09;;;;;;;13.10;6.93;;;;;;;;;;5075892;28;20402;-68
2023/06/24 02:19:36;;;;;;;;;;;;;;;;;;5094726;28;20107;-68
2023/06/24 02:22:02;;;;;;;17.20;8.65;;;;;;;;;;5094114;28;19911;-68
2023/06/24 02:24:29;;;;;;;19.08;7.72;;;;;;;;;;5094246;28;20028;-68
2023/06/24 02:26:57;;;;;;;13.05;7.70;;;;;;;;;;5094326;28;20029;-70
2023/06/24 02:29:24;;;;;;;15.93;7.53;;;;;;;;;;5094082;28;20028;-69
2023/06/24 02:31:49;;;;;;;18.60;7.45;;;;;;;;;;5093675;28;20024;-71
2023/06/24 02:34:16;;;;;;;12.57;7.78;;;;;;;;;;5093955;28;20347;-68
2023/06/24 02:36:41;;;;;;;10.68;7.15;;;;;;;;;;5093896;28;20355;-70
2023/06/24 02:39:07;;;;;;;10.68;7.72;;;;;;;;;;5098544;28;20035;-70
2023/06/24 02:41:32;;;;;;;13.65;7.13;;;;;;;;;;5113521;28;20020;-69
2023/06/24 02:43:57;;;;;;;16.25;7.50;;;;;;;;;;5103599;28;20521;-70
2023/06/24 02:46:25;;;;;;;12.48;6.72;;;;;;;;;;5093097;28;20558;-68
2023/06/24 02:48:52;;;;;;;12.65;7.07;;;;;;;;;;5093858;28;20347;-72
2023/06/24 02:51:18;;;;;;;10.90;6.75;;;;;;;;;;5093599;28;20032;-69
2023/06/24 02:53:45;;;;;;;13.75;6.82;;;;;;;;;;5093611;28;20027;-69
2023/06/24 02:56:12;;;;;;;11.48;7.75;;;;;;;;;;5093472;28;20031;-68
2023/06/24 02:58:39;;;;;;;13.05;7.18;;;;;;;;;;5075629;28;20020;-69
2023/06/24 03:01:06;;;;;;;10.73;7.20;;;;;;;;;;5093293;28;20028;-68
2023/06/24 03:03:32;;;;;;;11.75;7.25;;;;;;;;;;5093646;28;20016;-68
2023/06/24 03:05:59;;;;;;;16.75;7.57;;;;;;;;;;5093253;28;20476;-68
2023/06/24 03:08:26;;;;;;;13.65;7.40;;;;;;;;;;5093411;28;20111;-72
2023/06/24 03:10:54;;;;;;;10.85;7.13;;;;;;;;;;5093174;28;20527;-68
2023/06/24 03:13:20;;;;;;;11.95;7.07;;;;;;;;;;5093367;28;20035;-72
2023/06/24 03:15:45;;;;;;;11.68;7.03;;;;;;;;;;5092973;28;20024;-71
2023/06/24 03:18:11;;;;;;;10.90;7.18;;;;;;;;;;5093011;28;20028;-68
2023/06/24 03:20:38;;;;;;;17.10;7.10;;;;;;;;;;5093095;28;20031;-69
2023/06/24 03:23:07;;;;;;;9.25;6.63;;;;;;;;;;5093025;28;20031;-67
2023/06/24 03:25:34;;;;;;;12.55;7.03;;;;;;;;;;5093008;28;20027;-67
2023/06/24 03:28:07;;;;;;;11.85;6.82;;;;;;;;;;5093110;28;20465;-67
2023/06/24 03:30:33;;;;;;;14.52;6.75;;;;;;;;;;5092732;28;20125;-68
2023/06/24 03:32:59;;;;;;;12.20;6.15;;;;;;;;;;5074759;28;20111;-67
2023/06/24 03:35:24;;;;;;;12.63;6.07;;;;;;;;;;5092996;28;20031;-67
2023/06/24 03:37:50;;;;;;;11.23;6.35;;;;;;;;;;5092698;28;20015;-70
2023/06/24 03:40:15;;;;;;;9.88;6.05;;;;;;;;;;5107198;28;20537;-68
2023/06/24 03:42:41;;;;;;;8.38;6.20;;;;;;;;;;5113215;28;20028;-68
2023/06/24 03:45:07;;;;;;;11.45;6.35;;;;;;;;;;5092739;28;20032;-72
2023/06/24 03:47:32;;;;;;;9.32;6.85;;;;;;;;;;5092522;28;20051;-72
2023/06/24 03:49:57;;;;;;;10.75;6.43;;;;;;;;;;5092799;28;20047;-68
2023/06/24 03:52:23;;;;;;;11.88;6.47;;;;;;;;;;5092954;28;20366;-70
2023/06/24 03:54:48;;;;;;;8.40;5.68;;;;;;;;;;5099450;28;20016;-68
2023/06/24 03:57:14;;;;;;;14.32;6.65;;;;;;;;;;5099369;28;20020;-67
2023/06/24 03:59:39;;;;;;;11.60;5.43;;;;;;;;;;5099169;28;20169;-68
2023/06/24 04:02:08;;;;;;;18.50;7.28;;;;;;;;;;5099440;28;20397;-69
2023/06/24 04:04:34;;;;;;;14.32;6.38;;;;;;;;;;5099310;28;20031;-67
2023/06/24 04:07:00;;;;;;;13.10;6.07;;;;;;;;;;5099329;28;20102;-71
2023/06/24 04:09:25;;;;;;;10.38;6.40;;;;;;;;;;5099561;28;20058;-68
2023/06/24 04:11:51;;;;;;;13.52;6.78;;;;;;;;;;5099097;28;20059;-68
2023/06/24 04:14:16;;;;;;;13.82;5.80;;;;;;;;;;5081294;28;20035;-69
2023/06/24 04:16:41;;;;;;;9.35;5.95;;;;;;;;;;5099307;28;20016;-68
2023/06/24 04:19:07;;;;;;;9.45;6.10;;;;;;;;;;5099239;28;20016;-69
2023/06/24 04:21:32;;;;;;;10.82;5.28;;;;;;;;;;5099229;28;20031;-69
2023/06/24 04:23:58;;;;;;;11.23;6.43;;;;;;;;;;5099148;28;20105;-68
2023/06/24 04:26:23;;;;;;;9.45;6.20;;;;;;;;;;5098796;28;20530;-68
2023/06/24 04:28:48;;;;;;;10.02;6.28;;;;;;;;;;5099182;28;20526;-68
2023/06/24 04:31:14;;;;;;;10.00;6.25;;;;;;;;;;5099086;28;20020;-72
2023/06/24 04:33:39;;;;;;;9.65;5.43;;;;;;;;;;5099171;28;20020;-67
2023/06/24 04:36:05;;;;;;;9.48;6.10;;;;;;;;;;5099110;28;20020;-69
2023/06/24 04:38:30;;;;;;;9.45;5.65;;;;;;;;;;5098969;28;20032;-67
2023/06/24 04:40:59;;;;;;;9.45;6.05;;;;;;;;;;5119011;28;20028;-70
2023/06/24 04:43:24;;;;;;;8.27;5.80;;;;;;;;;;5113809;28;20020;-68
2023/06/24 04:45:50;;;;;;;8.43;5.57;;;;;;;;;;5098911;28;20080;-73
2023/06/24 04:48:15;;;;;;;11.25;6.25;;;;;;;;;;5098990;28;20040;-69
2023/06/24 04:50:41;;;;;;;8.70;5.85;;;;;;;;;;5099051;28;20105;-68
2023/06/24 04:53:06;;;;;;;9.07;5.85;;;;;;;;;;5099008;28;20030;-67
2023/06/24 04:55:31;;;;;;;7.40;4.90;;;;;;;;;;5098639;28;20020;-68
2023/06/24 04:57:57;;;;;;;10.15;5.15;;;;;;;;;;5098989;28;20020;-67
2023/06/24 05:00:24;;;;;;;8.68;5.22;;;;;;;;;;5098922;28;20024;-68
2023/06/24 05:02:50;;;;;;;8.68;4.88;;;;;;;;;;5098985;28;20462;-73
2023/06/24 05:05:15;;;;;;;8.95;5.40;;;;;;;;;;5096362;28;20024;-71
2023/06/24 05:07:40;;;;;;;9.35;5.40;;;;;;;;;;5095528;28;20111;-71
2023/06/24 05:10:06;;;;;;;8.38;5.30;;;;;;;;;;5095416;28;20065;-69
2023/06/24 05:12:31;;;;;;;9.32;5.78;;;;;;;;;;5095519;28;20032;-73
2023/06/24 05:14:57;;;;;;;9.63;5.30;;;;;;;;;;5095488;28;20035;-73
2023/06/24 05:17:23;;;;;;;9.20;4.78;;;;;;;;;;5095592;28;20016;-70
2023/06/24 05:19:49;;;;;;;9.20;5.20;;;;;;;;;;5095454;28;20377;-72
2023/06/24 05:22:14;;;;;;;7.63;5.00;;;;;;;;;;5095343;28;20107;-68
2023/06/24 05:24:41;;;;;;;8.07;5.03;;;;;;;;;;5095049;28;20378;-70
2023/06/24 05:27:07;;;;;;;15.38;5.80;;;;;;;;;;5095304;28;20028;-72
2023/06/24 05:29:35;;;;;;;10.75;5.18;;;;;;;;;;5095359;28;20028;-67
2023/06/24 05:32:03;;;;;;;9.27;5.00;;;;;;;;;;5095176;28;20039;-68
2023/06/24 05:34:28;;;;;;;6.35;4.82;;;;;;;;;;5095164;28;20032;-69
2023/06/24 05:36:54;;;;;;;8.55;5.03;;;;;;;;;;5095083;28;20027;-70
2023/06/24 05:39:20;;;;;;;10.55;5.40;;;;;;;;;;5101249;28;20438;-67
2023/06/24 05:41:48;;;;;;;8.95;5.80;;;;;;;;;;5115255;28;20051;-69
2023/06/24 05:44:13;;;;;;;7.60;4.95;;;;;;;;;;5102776;28;20062;-70
2023/06/24 05:46:39;;;;;;;9.13;5.25;;;;;;;;;;5094372;28;20040;-73
2023/06/24 05:49:04;;;;;;;8.98;5.75;;;;;;;;;;5094877;28;20515;-75
2023/06/24 05:51:29;;;;;;;10.32;5.82;;;;;;;;;;5094713;28;20089;-68
2023/06/24 05:53:55;;;;;;;8.27;5.35;;;;;;;;;;5094698;28;20024;-71
2023/06/24 05:56:22;;;;;;;12.43;5.20;;;;;;;;;;5094582;28;20477;-68
2023/06/24 05:58:47;;;;;;;8.25;5.18;;;;;;;;;;5094764;28;20027;-68
2023/06/24 06:01:13;;;;;;;9.32;5.50;;;;;;;;;;5094612;28;20104;-67
2023/06/24 06:03:38;;;;;;;7.97;5.40;;;;;;;;;;5094442;28;20346;-68
2023/06/24 06:06:04;;;;;;;12.88;5.95;;;;;;;;;;5094496;28;20024;-69
2023/06/24 06:08:29;;;;;;;6.63;5.03;;;;;;;;;;5094165;28;20141;-70
2023/06/24 06:10:55;;;;;;;7.80;5.35;;;;;;;;;;5094445;28;20031;-68
2023/06/24 06:13:20;;;;;;;13.45;6.68;;;;;;;;;;5094457;28;20032;-68
2023/06/24 06:15:45;;;;;;;10.35;5.38;;;;;;;;;;5094001;28;20024;-69
2023/06/24 06:18:11;;;;;;;9.73;5.80;;;;;;;;;;5093221;28;20020;-74
2023/06/24 06:20:37;;;;;;;13.50;6.18;;;;;;;;;;5094159;28;20031;-69
2023/06/24 06:23:02;;;;;;;10.13;5.43;;;;;;;;;;5094033;28;20024;-70
2023/06/24 06:25:28;;;;;;;12.13;5.60;;;;;;;;;;5094176;28;20028;-68
2023/06/24 06:27:53;;;;;;;7.07;4.82;;;;;;;;;;5094026;28;20068;-72
2023/06/24 06:30:19;;;;;;;9.75;5.60;;;;;;;;;;5094083;28;20028;-69
2023/06/24 06:32:44;;;;;;;13.35;6.63;;;;;;;;;;5093922;28;20039;-67
2023/06/24 06:35:10;;;;;;;12.95;5.88;;;;;;;;;;5093978;28;20042;-68
2023/06/24 06:37:35;;;;;;;8.95;5.75;;;;;;;;;;5075594;28;20016;-73
2023/06/24 06:40:02;;;;;;;9.38;5.43;;;;;;;;;;5106228;28;20058;-68
2023/06/24 06:42:29;;;;;;;10.77;5.28;;;;;;;;;;5114173;28;20540;-68
2023/06/24 06:44:55;;;;;;;9.50;5.32;;;;;;;;;;5095777;28;20115;-68
2023/06/24 06:47:20;;;;;;;8.82;5.93;;;;;;;;;;5093554;28;20090;-67
2023/06/24 06:49:46;;;;;;;9.23;5.47;;;;;;;;;;5093826;28;20081;-67
2023/06/24 06:52:11;;;;;;;10.32;5.13;;;;;;;;;;5093464;28;20040;-68
2023/06/24 06:54:36;;;;;;;8.90;5.18;;;;;;;;;;5093615;28;20028;-67
2023/06/24 06:57:03;;;;;;;10.45;5.40;;;;;;;;;;5093626;28;20165;-68
2023/06/24 06:59:29;;;;;;;9.02;5.53;;;;;;;;;;5093658;28;20032;-67
2023/06/24 07:01:55;;;;;;;8.32;5.65;;;;;;;;;;5093650;28;20127;-67
2023/06/24 07:04:20;;;;;;;10.02;5.30;;;;;;;;;;5093479;28;20020;-67
2023/06/24 07:06:46;;;;;;;15.77;5.88;;;;;;;;;;5093160;28;20115;-71
2023/06/24 07:09:11;;;;;;;10.25;5.50;;;;;;;;;;5093244;28;20052;-68
2023/06/24 07:11:37;;;;;;;9.50;5.57;;;;;;;;;;5093290;28;20108;-69
2023/06/24 07:14:02;;;;;;;9.23;5.40;;;;;;;;;;5093104;28;20032;-67
2023/06/24 07:16:27;;;;;;;10.63;5.90;;;;;;;;;;5093103;28;20035;-69
2023/06/24 07:18:53;;;;;;;9.50;5.95;;;;;;;;;;5093219;28;20024;-72
2023/06/24 07:21:18;;;;;;;6.72;5.47;;;;;;;;;;5092974;28;20063;-73
2023/06/24 07:23:44;;;;;;;10.93;5.35;;;;;;;;;;5093115;28;20024;-72
2023/06/24 07:26:09;;;;;;;8.55;5.05;;;;;;;;;;5093199;28;20020;-73
2023/06/24 07:28:35;;;;;;;8.02;5.80;;;;;;;;;;5092816;28;20491;-72
2023/06/24 07:31:01;;;;;;;8.55;5.47;;;;;;;;;;5074976;28;20028;-71
2023/06/24 07:33:26;;;;;;;10.38;5.40;;;;;;;;;;5093097;28;20024;-70
2023/06/24 07:35:52;;;;;;;10.55;5.07;;;;;;;;;;5092841;28;20488;-74
2023/06/24 07:38:17;;;;;;;8.68;5.50;;;;;;;;;;5092823;28;20039;-68
2023/06/24 07:40:42;;;;;;;9.50;5.05;;;;;;;;;;5111211;28;20027;-68
2023/06/24 07:43:08;;;;;;;11.77;5.22;;;;;;;;;;5109874;28;20020;-68
2023/06/24 07:45:33;;;;;;;10.43;5.22;;;;;;;;;;5092716;28;20020;-69
2023/06/24 07:47:59;;;;;;;9.10;5.13;;;;;;;;;;5092721;28;20036;-71
2023/06/24 07:50:24;;;;;;;8.40;4.72;;;;;;;;;;5092644;28;20032;-68
2023/06/24 07:52:50;;;;;;;8.48;4.63;;;;;;;;;;5092704;28;20047;-69
2023/06/24 07:55:15;;;;;;;7.60;4.47;;;;;;;;;;5092684;28;20066;-68
2023/06/24 07:57:45;;;;;;;7.47;4.40;;;;;;;;;;5092552;28;20385;-69
2023/06/24 08:00:11;;;;;;;8.38;4.25;;;;;;;;;;5092645;28;20020;-67
2023/06/24 08:02:37;;;;;;;7.40;5.15;;;;;;;;;;5092533;28;20393;-67
2023/06/24 08:05:02;;;;;;;10.70;4.78;;;;;;;;;;5092276;28;20355;-67
2023/06/24 08:07:28;;;;;;;9.32;4.68;;;;;;;;;;5092872;28;20531;-72
2023/06/24 08:09:53;;;;;;;7.15;4.55;;;;;;;;;;5092727;28;20492;-67
2023/06/24 08:12:19;;;;;;;6.70;4.50;;;;;;;;;;5092641;28;20035;-70
2023/06/24 08:14:44;;;;;;;8.82;4.70;;;;;;;;;;5092642;28;20024;-70
2023/06/24 08:17:09;;;;;;;8.30;4.78;;;;;;;;;;5092659;28;20025;-67
2023/06/24 08:19:35;;;;;;;6.57;4.28;;;;;;;;;;5092565;28;20020;-68
2023/06/24 08:22:00;;;;;;;6.93;4.32;;;;;;;;;;5092617;28;20051;-67
2023/06/24 08:24:26;;;;;;;8.43;4.13;;;;;;;;;;5092518;28;20032;-68
2023/06/24 08:26:52;;;;;;;6.63;4.10;;;;;;;;;;5092357;28;20031;-67
2023/06/24 08:29:18;;;;;;;7.97;4.90;;;;;;;;;;5092372;28;20024;-67
2023/06/24 08:31:43;;;;;;;9.05;4.45;;;;;;;;;;5092414;28;20492;-68
2023/06/24 08:34:09;;;;;;;12.43;4.53;;;;;;;;;;5092227;28;20054;-67
2023/06/24 08:36:37;;;;;;;5.72;3.88;;;;;;;;;;5092481;28;20020;-67
2023/06/24 08:39:02;;;;;;;7.38;4.50;;;;;;;;;;5096332;28;20027;-67
2023/06/24 08:41:28;;;;;;;7.90;4.10;;;;;;;;;;5115982;28;20023;-67
2023/06/24 08:43:54;;;;;;;8.80;4.47;;;;;;;;;;5106907;28;20028;-67
2023/06/24 08:46:21;;;;;;;6.20;4.18;;;;;;;;;;5095761;28;20412;-67
2023/06/24 08:48:48;;;;;;;7.78;4.70;;;;;;;;;;5095890;28;20032;-67
2023/06/24 08:51:18;;;;;;;8.60;4.55;;;;;;;;;;5096024;28;20125;-67
2023/06/24 08:53:44;;;;;;;7.55;4.57;;;;;;;;;;5096014;28;20458;-67
2023/06/24 08:56:11;;;;;;;7.43;4.30;;;;;;;;;;5093890;28;20465;-67
2023/06/24 08:58:36;;;;;;;5.30;4.30;;;;;;;;;;5095330;28;20054;-67
2023/06/24 09:01:03;;;;;;;5.82;3.78;;;;;;;;;;5095320;28;20465;-67
2023/06/24 09:03:28;;;;;;;6.30;4.38;;;;;;;;;;5091358;28;20062;-68
2023/06/24 09:05:54;;;;;;;7.13;4.78;;;;;;;;;;5083079;28;20355;-68
2023/06/24 09:08:21;;;;;;;7.50;4.72;;;;;;;;;;5075386;28;20501;-67
2023/06/24 09:10:54;;;;;;;7.45;4.20;;;;;;;;;;5075352;28;20107;-68
2023/06/24 09:13:19;;;;;;;7.30;4.15;;;;;;;;;;5075348;28;20099;-68
2023/06/24 09:15:45;;;;;;;7.22;3.72;;;;;;;;;;5075224;28;20112;-67
2023/06/24 09:18:11;;;;;;;5.30;4.40;;;;;;;;;;5075037;28;20024;-68
2023/06/24 09:20:44;;;;;;;5.93;3.63;;;;;;;;;;5075224;28;20037;-66
2023/06/24 09:23:10;;;;;;;8.70;4.18;;;;;;;;;;5075046;28;20024;-67
2023/06/24 09:25:36;;;;;;;4.90;3.90;;;;;;;;;;5094195;28;20038;-68
2023/06/24 09:28:02;;;;;;;6.85;4.10;;;;;;;;;;5106868;28;20054;-68
2023/06/24 09:30:27;;;;;;;8.50;4.20;;;;;;;;;;5107001;28;20081;-71
2023/06/24 09:32:54;;;;;;;6.80;4.40;;;;;;;;;;5099377;28;20088;-72
2023/06/24 09:35:21;;;;;;;7.25;4.13;;;;;;;;;;5111451;28;20392;-67
2023/06/24 09:37:50;;;;;;;9.02;4.18;;;;;;;;;;5101028;28;20107;-67
2023/06/24 09:40:16;;;;;;;6.27;3.90;;;;;;;;;;5115056;28;20024;-69
2023/06/24 09:42:54;;;;;;;6.22;3.83;;;;;;;;;;5101459;28;20035;-68
2023/06/24 09:45:27;;;;;;;7.22;4.57;;;;;;;;;;5096580;28;20024;-68
2023/06/24 09:47:57;;;;;;;5.60;3.95;;;;;;;;;;5093256;28;20036;-68
2023/06/24 09:50:23;;;;;;;6.72;3.83;;;;;;;;;;5094170;28;20036;-71
2023/06/24 09:52:50;;;;;;;6.43;3.80;;;;;;;;;;5107778;28;20043;-69
2023/06/24 09:55:17;;;;;;;8.70;4.00;;;;;;;;;;5098012;28;20481;-69
2023/06/24 09:57:46;;;;;;;9.30;4.47;;;;;;;;;;5110761;28;20419;-67
2023/06/24 10:00:17;;;;;;;5.03;4.17;;;;;;;;;;5100927;28;20028;-68
2023/06/24 10:02:44;;;;;;;7.82;4.35;;;;;;;;;;5107104;28;20039;-67
2023/06/24 10:05:10;;;;;;;7.65;4.35;;;;;;;;;;5086010;28;20389;-67
2023/06/24 10:07:36;;;;;;;8.40;3.85;;;;;;;;;;5102361;28;20031;-69
2023/06/24 10:10:06;;;;;;;6.90;3.90;;;;;;;;;;5096854;28;20043;-68
2023/06/24 10:12:31;;;;;;;5.40;3.85;;;;;;;;;;5098805;28;20110;-68
2023/06/24 10:14:59;;;;;;;7.82;4.03;;;;;;;;;;5105672;28;20075;-68
2023/06/24 10:17:24;;;;;;;4.50;3.53;;;;;;;;;;5106192;28;20097;-67
2023/06/24 10:19:54;;;;;;;6.50;3.78;;;;;;;;;;5098221;28;20466;-66
2023/06/24 10:22:22;;;;;;;7.70;4.53;;;;;;;;;;5110013;28;20027;-67
2023/06/24 10:24:47;;;;;;;5.93;4.30;;;;;;;;;;5088734;28;20351;-66
2023/06/24 10:27:18;;;;;;;6.13;4.18;;;;;;;;;;5104379;28;20035;-68
2023/06/24 10:29:48;;;;;;;7.70;3.70;;;;;;;;;;5098752;28;20115;-67
2023/06/24 10:32:13;;;;;;;7.22;4.40;;;;;;;;;;5110140;28;20023;-72
2023/06/24 10:34:44;;;;;;;8.02;3.88;;;;;;;;;;5093438;28;20036;-68
2023/06/24 10:37:32;;;;;;;6.05;3.67;;;;;;;;;;5108100;28;20023;-68
2023/06/24 10:39:57;;;;;;;5.35;3.90;;;;;;;;;;5105545;28;20067;-67
2023/06/24 10:42:38;;;;;;;6.05;3.83;;;;;;;;;;5113873;28;20051;-67
2023/06/24 10:45:09;;;;;;;4.85;3.67;;;;;;;;;;5093906;28;20032;-67
2023/06/24 10:47:42;;;;;;;6.90;4.30;;;;;;;;;;5105479;28;20052;-67
2023/06/24 10:50:10;;;;;;;6.13;3.88;;;;;;;;;;5113801;28;20024;-68
2023/06/24 10:52:40;;;;;;;6.20;4.00;;;;;;;;;;5096745;28;20042;-68
2023/06/24 10:55:07;;;;;;;8.10;4.00;;;;;;;;;;5106541;28;20436;-67
2023/06/24 10:57:32;;;;;;;6.82;3.95;;;;;;;;;;5093257;28;20016;-66
2023/06/24 10:59:58;;;;;;;7.35;4.03;;;;;;;;;;5093068;28;20077;-68
2023/06/24 11:02:26;;;;;;;9.85;3.97;;;;;;;;;;5092804;28;20020;-67
2023/06/24 11:04:58;;;;;;;6.88;3.95;;;;;;;;;;5093025;28;20059;-68
2023/06/24 11:07:25;;;;;;;7.90;4.20;;;;;;;;;;5093057;28;20457;-68
2023/06/24 11:09:50;;;;;;;6.43;4.10;;;;;;;;;;5093127;28;20056;-67
2023/06/24 11:12:16;;;;;;;8.15;4.13;;;;;;;;;;5093065;28;20036;-67
2023/06/24 11:14:43;;;;;;;6.38;4.20;;;;;;;;;;5093054;28;20500;-67
2023/06/24 11:17:09;;;;;;;6.60;4.20;;;;;;;;;;5093132;28;20028;-69
2023/06/24 11:19:38;;;;;;;6.60;3.90;;;;;;;;;;5093078;28;20032;-67
2023/06/24 11:22:05;;;;;;;5.82;3.88;;;;;;;;;;5091580;28;20122;-67
2023/06/24 11:24:30;;;;;;;5.82;3.70;;;;;;;;;;5092947;28;20043;-67
2023/06/24 11:26:56;;;;;;;5.28;3.65;;;;;;;;;;5092701;28;20029;-67
2023/06/24 11:29:22;;;;;;;8.18;4.15;;;;;;;;;;5092738;28;20184;-67
2023/06/24 11:31:49;;;;;;;4.97;3.95;;;;;;;;;;5092689;28;20039;-67
2023/06/24 11:34:14;;;;;;;6.07;3.85;;;;;;;;;;5092790;28;20118;-67
2023/06/24 11:36:40;;;;;;;5.30;3.65;;;;;;;;;;5092717;28;20056;-67
2023/06/24 11:39:05;;;;;;;6.85;3.97;;;;;;;;;;5097206;28;20031;-71
2023/06/24 11:41:31;;;;;;;6.28;3.97;;;;;;;;;;5112812;28;20110;-67
2023/06/24 11:43:59;;;;;;;7.85;3.90;;;;;;;;;;5113061;28;20027;-67
2023/06/24 11:46:35;;;;;;;5.82;3.70;;;;;;;;;;5094528;28;20024;-67
2023/06/24 11:49:07;;;;;;;8.82;4.25;;;;;;;;;;5074507;28;20024;-70
2023/06/24 11:51:36;;;;;;;7.68;4.10;;;;;;;;;;5092299;28;20123;-67
2023/06/24 11:54:03;;;;;;;7.83;3.77;;;;;;;;;;5092387;28;20016;-70
2023/06/24 11:56:39;;;;;;;5.13;4.00;;;;;;;;;;5074087;28;20613;-74
2023/06/24 11:59:06;;;;;;;4.82;3.85;;;;;;;;;;5092436;28;20073;-70
2023/06/24 12:01:32;;;;;;;8.00;4.25;;;;;;;;;;5092435;28;20462;-73
2023/06/24 12:04:01;;;;;;;10.10;3.60;;;;;;;;;;5092499;28;20496;-75
2023/06/24 12:06:27;;;;;;;8.90;3.40;;;;;;;;;;5092196;28;20495;-70
2023/06/24 12:08:52;;;;;;;7.13;3.45;;;;;;;;;;5092640;28;20032;-72
2023/06/24 12:11:18;;;;;;;10.75;3.90;;;;;;;;;;5092193;28;20025;-67
2023/06/24 12:13:43;;;;;;;14.82;4.07;;;;;;;;;;5092719;28;20117;-72
2023/06/24 12:16:09;;;;;;;31.30;6.38;;;;;;;;;;5096644;28;20032;-69
2023/06/24 12:18:34;;;;;;;89.82;14.45;;;;;;;;;;5096560;28;20032;-67
2023/06/24 12:20:59;;;;;;;63.75;12.75;;;;;;;;;;5096519;28;20500;-67
2023/06/24 12:23:25;;;;;;;89.82;17.52;;;;;;;;;;5096621;28;20027;-68
2023/06/24 12:25:50;;;;;;;37.78;9.52;;;;;;;;;;5096313;28;20109;-70
2023/06/24 12:28:16;;;;;;;30.42;7.93;;;;;;;;;;5096189;28;20492;-69
2023/06/24 12:30:41;;;;;;;27.63;8.20;;;;;;;;;;5093753;28;20017;-68
2023/06/24 12:33:08;;;;;;;18.25;5.20;;;;;;;;;;5094780;28;20034;-69
2023/06/24 12:35:34;;;;;;;13.55;4.95;;;;;;;;;;5094322;28;20401;-68
2023/06/24 12:37:59;;;;;;;10.63;4.57;;;;;;;;;;5094223;28;20028;-69
2023/06/24 12:40:24;;;;;;;10.43;4.07;;;;;;;;;;5109633;28;20027;-70
2023/06/24 12:42:50;;;;;;;11.27;4.55;;;;;;;;;;5114934;28;20059;-70
2023/06/24 12:45:15;;;;;;;7.35;3.78;;;;;;;;;;5106560;28;20036;-68
2023/06/24 12:47:41;;;;;;;6.63;3.63;;;;;;;;;;5093609;28;20127;-67
2023/06/24 12:50:07;;;;;;;8.85;3.60;;;;;;;;;;5093997;28;20031;-71
2023/06/24 12:52:34;;;;;;;10.40;3.83;;;;;;;;;;5093619;28;20031;-68
2023/06/24 12:54:59;;;;;;;8.20;3.15;;;;;;;;;;5093949;28;20357;-69
2023/06/24 12:57:24;;;;;;;5.93;3.45;;;;;;;;;;5095117;28;20016;-69
2023/06/24 12:59:50;;;;;;;8.68;3.55;;;;;;;;;;5095262;28;20102;-69
2023/06/24 13:02:15;;;;;;;4.95;3.30;;;;;;;;;;5095695;28;20070;-68
2023/06/24 13:04:41;;;;;;;4.50;3.50;;;;;;;;;;5095931;28;20080;-69
2023/06/24 13:07:07;;;;;;;3.67;3.10;;;;;;;;;;5095802;28;20027;-68
2023/06/24 13:09:32;;;;;;;5.32;3.70;;;;;;;;;;5095672;28;20081;-68
2023/06/24 13:11:58;;;;;;;5.07;3.60;;;;;;;;;;5095704;28;20031;-68
2023/06/24 13:14:26;;;;;;;5.30;3.60;;;;;;;;;;5095814;28;20466;-73
2023/06/24 13:16:52;;;;;;;5.50;3.58;;;;;;;;;;5095685;28;20054;-68
2023/06/24 13:19:17;;;;;;;4.93;3.47;;;;;;;;;;5095486;28;20051;-70
2023/06/24 13:21:43;;;;;;;4.70;3.30;;;;;;;;;;5095674;28;20020;-68
2023/06/24 13:24:08;;;;;;;4.38;3.30;;;;;;;;;;5077195;28;20028;-72
2023/06/24 13:26:34;;;;;;;5.72;3.70;;;;;;;;;;5094633;28;20024;-68
2023/06/24 13:28:59;;;;;;;6.55;3.47;;;;;;;;;;5095513;28;20432;-71
2023/06/24 13:31:25;;;;;;;5.95;3.33;;;;;;;;;;5095394;28;20466;-70
2023/06/24 13:33:50;;;;;;;4.53;3.35;;;;;;;;;;5095275;28;20056;-68
2023/06/24 13:36:36;;;;;;;4.25;3.25;;;;;;;;;;5095243;28;20024;-76
2023/06/24 13:39:16;;;;;;;6.93;3.53;;;;;;;;;;5098819;28;20080;-68
2023/06/24 13:41:42;;;;;;;6.30;3.47;;;;;;;;;;5115596;28;20035;-74
2023/06/24 13:44:08;;;;;;;5.88;3.22;;;;;;;;;;5115516;28;20063;-76
2023/06/24 13:46:33;;;;;;;11.77;7.75;;;;;;;;;;5097755;28;20076;-69
2023/06/24 13:48:59;;;;;;;5.80;3.50;;;;;;;;;;5095089;28;20024;-70
2023/06/24 13:51:25;;;;;;;4.40;3.50;;;;;;;;;;5095044;28;20024;-67
2023/06/24 13:53:52;;;;;;;6.22;3.30;;;;;;;;;;5094854;28;20028;-76
2023/06/24 13:56:19;;;;;;;7.72;3.42;;;;;;;;;;5094811;28;20020;-68
2023/06/24 13:58:45;;;;;;;5.53;3.38;;;;;;;;;;5094825;28;20028;-72
2023/06/24 14:01:10;;;;;;;4.68;2.97;;;;;;;;;;5094887;28;20507;-76
2023/06/24 14:03:36;;;;;;;4.97;3.28;;;;;;;;;;5094680;28;20031;-68
2023/06/24 14:06:03;;;;;;;4.78;2.78;;;;;;;;;;5094592;28;20550;-76
2023/06/24 14:08:29;;;;;;;4.40;3.05;;;;;;;;;;5094409;28;20034;-70
2023/06/24 14:10:56;;;;;;;5.05;3.50;;;;;;;;;;5094142;28;20471;-75
2023/06/24 14:13:21;;;;;;;4.65;3.13;;;;;;;;;;5094319;28;20096;-77
2023/06/24 14:15:46;;;;;;;5.47;3.20;;;;;;;;;;5094502;28;20450;-70
2023/06/24 14:18:12;;;;;;;7.00;3.42;;;;;;;;;;5094526;28;20027;-76
2023/06/24 14:20:37;;;;;;;4.45;3.20;;;;;;;;;;5094448;28;20031;-76
2023/06/24 14:23:04;;;;;;;5.15;3.25;;;;;;;;;;5094079;28;20492;-74
2023/06/24 14:25:30;;;;;;;6.57;3.28;;;;;;;;;;5094164;28;20020;-75
2023/06/24 14:27:55;;;;;;;5.57;3.47;;;;;;;;;;5094295;28;20546;-73
2023/06/24 14:30:21;;;;;;;3.60;3.10;;;;;;;;;;5094194;28;20103;-76
2023/06/24 14:32:46;;;;;;;4.13;2.97;;;;;;;;;;5094059;28;20157;-69
2023/06/24 14:35:12;;;;;;;4.78;3.15;;;;;;;;;;5093952;28;20048;-74
2023/06/24 14:37:37;;;;;;;6.80;3.25;;;;;;;;;;5092644;28;20434;-69